createdAt,value
2022-10-25T15:40:19.454Z,50.50
2022-10-25T15:50:20.022Z,66.90
2022-10-25T16:00:22.910Z,73.80
2022-10-25T16:10:24.484Z,81.10
2022-10-25T16:20:25.379Z,85.50
2022-10-25T16:30:26.121Z,88.10
2022-10-25T16:40:23.297Z,88.10
2022-10-25T16:50:23.896Z,90.40
2022-10-25T17:00:21.156Z,91.80
2022-10-25T17:10:20.143Z,92.10
2022-10-25T17:20:17.624Z,94.30
2022-10-25T17:30:16.597Z,95.10
2022-10-25T17:40:13.974Z,95.70
2022-10-25T17:50:13.001Z,92.70
2022-10-25T18:00:11.562Z,93.50
2022-10-25T18:10:12.576Z,91.60
2022-10-25T18:20:10.075Z,92.70
2022-10-25T18:30:07.997Z,94.40
2022-10-25T18:40:06.597Z,97.10
2022-10-25T18:50:04.187Z,96.20
2022-10-25T19:00:01.462Z,96.90
2022-10-25T19:09:58.660Z,97.50
2022-10-25T19:19:55.776Z,97.40
2022-10-25T19:29:53.062Z,96.50
2022-10-25T19:39:51.168Z,95.30
2022-10-25T19:49:49.757Z,97.10
2022-10-25T19:59:47.101Z,98.10
2022-10-25T20:09:44.445Z,97.30
2022-10-25T20:19:41.742Z,97.20
2022-10-25T20:29:40.139Z,98.50
2022-10-25T20:39:37.404Z,99.40
2022-10-25T20:49:35.136Z,99.90
2022-10-25T20:59:33.881Z,99.90
2022-10-25T21:09:31.089Z,99.90
2022-10-25T21:19:28.153Z,99.90
2022-10-25T21:29:25.408Z,99.90
2022-10-25T21:39:24.218Z,99.90
2022-10-25T21:49:21.455Z,99.90
2022-10-25T21:59:20.128Z,99.90
2022-10-25T22:09:17.391Z,99.90
2022-10-25T22:19:20.885Z,99.90
2022-10-25T22:29:18.289Z,99.90
2022-10-25T22:39:16.696Z,99.90
2022-10-25T22:49:13.884Z,99.90
2022-10-25T22:59:11.765Z,99.90
2022-10-25T23:09:10.102Z,99.90
2022-10-25T23:19:07.323Z,99.90
2022-10-25T23:29:04.647Z,99.90
2022-10-25T23:39:01.892Z,99.90
2022-10-25T23:48:59.108Z,99.90
2022-10-25T23:58:56.330Z,99.90
